createdAt,value
2022-11-03T00:02:08.399Z,13.65
2022-11-03T00:04:35.823Z,12.90
2022-11-03T00:07:03.542Z,13.90
2022-11-03T00:09:32.079Z,14.55
2022-11-03T00:12:00.334Z,13.50
2022-11-03T00:14:28.081Z,14.68
2022-11-03T00:16:57.663Z,13.90
2022-11-03T00:19:25.155Z,13.57
2022-11-03T00:21:53.978Z,13.88
2022-11-03T00:24:21.115Z,14.68
2022-11-03T00:26:48.126Z,15.00
2022-11-03T00:29:15.754Z,14.05
2022-11-03T00:31:44.780Z,14.57
2022-11-03T00:34:13.050Z,15.90
2022-11-03T00:36:43.369Z,14.68
2022-11-03T00:39:11.335Z,14.30
2022-11-03T00:41:39.005Z,16.27
2022-11-03T00:44:06.453Z,14.15
2022-11-03T00:46:35.868Z,15.75
2022-11-03T00:49:06.446Z,15.55
2022-11-03T00:51:35.250Z,15.10
2022-11-03T00:54:04.867Z,14.82
2022-11-03T00:56:36.459Z,15.15
2022-11-03T00:59:04.990Z,14.98
2022-11-03T01:01:46.802Z,15.52
2022-11-03T01:04:35.050Z,14.57
2022-11-03T01:07:03.727Z,14.45
2022-11-03T01:09:43.587Z,13.70
2022-11-03T01:12:16.381Z,16.33
2022-11-03T01:14:51.871Z,16.17
2022-11-03T01:19:46.622Z,14.15
2022-11-03T01:22:16.293Z,14.35
2022-11-03T01:24:45.768Z,16.33
2022-11-03T01:27:16.365Z,15.73
2022-11-03T01:29:44.262Z,15.68
2022-11-03T01:32:14.809Z,15.57
2022-11-03T01:34:41.820Z,15.60
2022-11-03T01:37:08.988Z,15.70
2022-11-03T01:39:36.634Z,16.23
2022-11-03T01:42:03.899Z,16.60
2022-11-03T01:44:35.346Z,16.02
2022-11-03T01:47:13.270Z,16.75
2022-11-03T01:49:54.845Z,16.25
2022-11-03T01:52:31.818Z,16.60
2022-11-03T01:55:03.891Z,17.55
2022-11-03T01:57:38.477Z,16.45
2022-11-03T02:00:07.162Z,17.03
2022-11-03T02:02:42.671Z,16.70
2022-11-03T02:05:11.877Z,16.33
2022-11-03T02:07:43.777Z,17.67
2022-11-03T02:10:11.256Z,17.65
2022-11-03T02:12:39.651Z,16.05
2022-11-03T02:15:09.668Z,17.23
2022-11-03T02:17:37.998Z,16.98
2022-11-03T02:20:13.546Z,16.73
2022-11-03T02:25:29.286Z,14.95
2022-11-03T02:27:58.645Z,15.38
2022-11-03T02:30:30.878Z,15.77
2022-11-03T02:33:06.681Z,16.27
2022-11-03T02:35:51.993Z,16.75
2022-11-03T02:38:21.960Z,17.10
2022-11-03T02:40:54.250Z,17.17
2022-11-03T02:43:34.883Z,16.50
2022-11-03T02:46:05.078Z,16.80
2022-11-03T02:48:32.992Z,17.92
2022-11-03T02:51:00.147Z,19.23
2022-11-03T02:53:30.494Z,19.40
2022-11-03T02:56:05.712Z,17.77
2022-11-03T03:01:26.104Z,16.27
2022-11-03T03:04:04.123Z,17.63
2022-11-03T03:06:40.536Z,16.58
2022-11-03T03:09:14.075Z,18.63
2022-11-03T03:11:43.895Z,17.90
2022-11-03T03:14:41.983Z,18.73
2022-11-03T03:17:18.230Z,18.38
2022-11-03T03:19:56.654Z,19.65
2022-11-03T03:22:41.888Z,18.58
2022-11-03T03:25:34.691Z,18.52
2022-11-03T03:28:11.035Z,19.27
2022-11-03T03:30:39.488Z,20.63
2022-11-03T03:33:09.174Z,20.80
2022-11-03T03:35:41.253Z,20.33
2022-11-03T03:38:21.924Z,21.80
2022-11-03T03:40:53.879Z,21.83
2022-11-03T03:43:23.655Z,22.20
2022-11-03T03:45:54.464Z,24.20
2022-11-03T03:48:22.061Z,25.20
2022-11-03T03:50:50.532Z,25.60
2022-11-03T03:53:19.565Z,25.33
2022-11-03T03:55:50.528Z,23.67
2022-11-03T03:58:18.466Z,22.58
2022-11-03T04:00:45.961Z,23.38
2022-11-03T04:03:19.971Z,27.90
2022-11-03T04:05:47.886Z,24.58
2022-11-03T04:08:16.564Z,29.85
2022-11-03T04:11:03.724Z,31.85
2022-11-03T04:13:49.844Z,29.88
2022-11-03T04:16:35.883Z,29.40
2022-11-03T04:19:21.399Z,33.42
2022-11-03T04:22:06.743Z,30.08
2022-11-03T04:24:33.730Z,24.15
2022-11-03T04:27:28.003Z,22.10
2022-11-03T04:30:03.456Z,21.38
2022-11-03T04:32:30.710Z,19.70
2022-11-03T04:34:59.868Z,22.70
2022-11-03T04:37:30.103Z,20.88
2022-11-03T04:40:01.578Z,20.48
2022-11-03T04:42:32.620Z,17.98
2022-11-03T04:45:02.970Z,18.08
2022-11-03T04:47:30.891Z,18.73
2022-11-03T04:49:59.077Z,15.15
2022-11-03T04:52:26.098Z,17.70
2022-11-03T04:54:54.062Z,15.95
2022-11-03T04:57:21.048Z,15.60
2022-11-03T04:59:50.829Z,15.90
2022-11-03T05:02:21.153Z,15.18
2022-11-03T05:04:48.107Z,14.82
2022-11-03T05:07:34.762Z,15.75
2022-11-03T05:10:02.804Z,11.02
2022-11-03T05:12:31.136Z,11.50
2022-11-03T05:14:59.055Z,11.75
2022-11-03T05:17:28.321Z,10.50
2022-11-03T05:20:00.250Z,10.15
2022-11-03T05:22:33.802Z,8.52
2022-11-03T05:25:43.496Z,8.95
2022-11-03T05:28:20.738Z,8.27
2022-11-03T05:30:49.280Z,7.90
2022-11-03T05:33:31.142Z,8.57
2022-11-03T05:36:02.449Z,8.15
2022-11-03T05:38:32.158Z,8.13
2022-11-03T05:41:00.339Z,8.13
2022-11-03T05:43:29.084Z,8.07
2022-11-03T05:45:58.913Z,7.22
2022-11-03T05:48:39.231Z,6.70
2022-11-03T05:51:21.135Z,7.63
2022-11-03T05:53:58.130Z,8.63
2022-11-03T05:56:26.040Z,8.15
2022-11-03T05:58:55.671Z,7.78
2022-11-03T06:01:36.312Z,8.88
2022-11-03T06:04:27.531Z,9.40
2022-11-03T06:06:59.235Z,9.50
2022-11-03T06:09:27.654Z,10.90
2022-11-03T06:11:59.166Z,9.43
2022-11-03T06:14:28.355Z,11.05
2022-11-03T06:17:08.192Z,10.30
2022-11-03T06:19:40.699Z,10.77
2022-11-03T06:22:23.845Z,9.65
2022-11-03T06:24:52.506Z,8.45
2022-11-03T06:27:24.106Z,9.27
2022-11-03T06:30:13.270Z,7.53
2022-11-03T06:32:40.292Z,7.55
2022-11-03T06:35:13.276Z,7.65
2022-11-03T06:37:41.346Z,7.70
2022-11-03T06:40:12.080Z,8.10
2022-11-03T06:42:40.111Z,7.93
2022-11-03T06:45:20.719Z,8.60
2022-11-03T06:47:48.091Z,9.43
2022-11-03T06:50:25.934Z,9.88
2022-11-03T06:52:56.131Z,9.50
2022-11-03T06:55:33.170Z,9.65
2022-11-03T06:58:07.011Z,9.23
2022-11-03T07:00:41.104Z,9.77
2022-11-03T07:03:21.163Z,10.43
2022-11-03T07:05:48.218Z,11.93
2022-11-03T07:08:25.440Z,11.82
2022-11-03T07:11:24.626Z,11.15
2022-11-03T07:14:19.632Z,11.07
2022-11-03T07:16:53.272Z,12.77
2022-11-03T07:19:28.882Z,13.10
2022-11-03T07:24:36.617Z,12.10
2022-11-03T07:27:20.022Z,12.40
2022-11-03T07:29:48.585Z,10.63
2022-11-03T07:32:24.122Z,10.85
2022-11-03T07:37:25.567Z,9.07
2022-11-03T07:39:53.283Z,9.90
2022-11-03T07:42:23.127Z,9.73
2022-11-03T07:44:54.619Z,9.98
2022-11-03T07:47:26.113Z,10.48
2022-11-03T07:49:55.176Z,10.15
2022-11-03T07:52:24.996Z,11.23
2022-11-03T07:54:57.033Z,10.63
2022-11-03T07:57:23.940Z,9.48
2022-11-03T07:59:53.805Z,11.10
2022-11-03T08:02:34.069Z,10.57
2022-11-03T08:05:05.724Z,9.15
2022-11-03T08:07:33.075Z,9.40
2022-11-03T08:10:22.751Z,9.52
2022-11-03T08:12:52.369Z,9.15
2022-11-03T08:15:21.976Z,9.00
2022-11-03T08:17:56.033Z,9.20
2022-11-03T08:20:23.610Z,8.25
2022-11-03T08:23:19.641Z,8.60
2022-11-03T08:25:38.653Z,8.40
2022-11-03T08:28:06.202Z,8.52
2022-11-03T08:30:44.809Z,8.15
2022-11-03T08:33:15.858Z,8.40
2022-11-03T08:35:46.442Z,9.27
2022-11-03T08:38:13.546Z,7.53
2022-11-03T08:40:52.696Z,7.78
2022-11-03T08:43:22.805Z,8.38
2022-11-03T08:45:53.869Z,8.32
2022-11-03T08:48:23.057Z,7.95
2022-11-03T08:50:51.003Z,7.93
2022-11-03T08:53:21.606Z,7.05
2022-11-03T08:55:51.964Z,7.18
2022-11-03T08:58:19.501Z,7.82
2022-11-03T09:00:51.986Z,6.85
2022-11-03T09:03:26.181Z,7.43
2022-11-03T09:05:56.752Z,6.22
2022-11-03T09:11:11.275Z,6.78
2022-11-03T09:13:49.426Z,6.03
2022-11-03T09:16:23.106Z,5.53
2022-11-03T09:18:50.297Z,6.07
2022-11-03T09:21:19.763Z,5.55
2022-11-03T09:23:56.201Z,6.38
2022-11-03T09:26:23.191Z,5.57
2022-11-03T09:28:50.298Z,6.47
2022-11-03T09:31:17.998Z,5.55
2022-11-03T09:33:45.578Z,4.50
2022-11-03T09:36:12.411Z,5.32
2022-11-03T09:38:39.324Z,4.55
2022-11-03T09:41:13.864Z,4.78
2022-11-03T09:43:54.561Z,5.50
2022-11-03T09:46:21.670Z,6.25
2022-11-03T09:48:48.566Z,5.10
2022-11-03T09:51:21.001Z,5.65
2022-11-03T09:53:48.568Z,5.55
2022-11-03T09:56:21.929Z,5.65
2022-11-03T09:58:54.015Z,6.35
2022-11-03T10:01:22.054Z,5.55
2022-11-03T10:03:49.274Z,5.55
2022-11-03T10:06:18.985Z,5.72
2022-11-03T10:08:47.520Z,5.82
2022-11-03T10:11:15.209Z,5.07
2022-11-03T10:13:47.778Z,4.97
2022-11-03T10:16:21.248Z,5.10
2022-11-03T10:18:49.642Z,6.45
2022-11-03T10:21:27.497Z,4.47
2022-11-03T10:23:54.665Z,3.65
2022-11-03T10:26:22.016Z,2.85
2022-11-03T10:29:06.205Z,2.45
2022-11-03T10:31:38.968Z,1.95
2022-11-03T10:34:27.629Z,2.10
2022-11-03T10:37:13.544Z,1.70
2022-11-03T10:39:43.114Z,2.22
2022-11-03T10:42:19.314Z,1.58
2022-11-03T10:44:46.724Z,1.58
2022-11-03T10:47:36.235Z,2.00
2022-11-03T10:50:23.530Z,3.15
2022-11-03T10:52:51.069Z,4.03
2022-11-03T10:55:22.220Z,3.67
2022-11-03T10:57:53.444Z,4.18
2022-11-03T11:00:20.761Z,3.55
2022-11-03T11:02:49.092Z,3.45
2022-11-03T11:05:21.530Z,3.10
2022-11-03T11:07:51.355Z,2.70
2022-11-03T11:10:19.515Z,2.35
2022-11-03T11:13:21.993Z,1.85
2022-11-03T11:15:48.975Z,1.63
2022-11-03T11:18:29.430Z,2.17
2022-11-03T11:21:16.119Z,2.00
2022-11-03T11:23:45.291Z,2.33
2022-11-03T11:26:27.021Z,2.53
2022-11-03T11:29:11.573Z,2.25
2022-11-03T11:31:42.119Z,2.53
2022-11-03T11:34:18.621Z,2.15
2022-11-03T11:37:14.999Z,2.00
2022-11-03T11:42:19.914Z,1.98
2022-11-03T11:44:54.128Z,1.80
2022-11-03T11:47:26.597Z,2.33
2022-11-03T11:50:11.792Z,3.25
2022-11-03T11:52:46.622Z,3.10
2022-11-03T11:55:32.354Z,3.75
2022-11-03T11:58:02.308Z,3.45
2022-11-03T12:00:35.102Z,3.30
2022-11-03T12:03:06.310Z,3.28
2022-11-03T12:05:36.055Z,3.22
2022-11-03T12:08:03.151Z,2.95
2022-11-03T12:10:31.646Z,2.67
2022-11-03T12:13:00.989Z,2.95
2022-11-03T12:16:03.559Z,3.42
2022-11-03T12:18:43.557Z,3.13
2022-11-03T12:21:34.698Z,3.00
2022-11-03T12:24:01.782Z,3.90
2022-11-03T12:26:28.950Z,4.22
2022-11-03T12:28:56.383Z,5.00
2022-11-03T15:25:12.600Z,3.25
2022-11-03T15:27:39.564Z,3.22
2022-11-03T15:30:10.077Z,3.58
2022-11-03T15:32:36.991Z,3.50
2022-11-03T15:35:04.621Z,4.20
2022-11-03T15:37:31.400Z,3.80
2022-11-03T15:39:59.894Z,3.70
2022-11-03T15:42:26.885Z,3.72
2022-11-03T15:44:53.794Z,3.22
2022-11-03T15:47:20.624Z,3.47
2022-11-03T15:49:47.404Z,3.75
2022-11-03T15:52:14.272Z,4.35
2022-11-03T15:54:42.603Z,4.35
2022-11-03T15:57:09.692Z,4.40
2022-11-03T15:59:36.587Z,4.22
2022-11-03T16:02:14.229Z,4.05
2022-11-03T16:04:50.097Z,5.30
2022-11-03T16:07:16.888Z,3.40
2022-11-03T16:09:47.438Z,3.88
2022-11-03T16:12:14.508Z,3.05
2022-11-03T16:14:41.494Z,3.40
2022-11-03T16:17:08.303Z,3.50
2022-11-03T16:19:35.073Z,3.55
2022-11-03T16:22:02.020Z,3.78
2022-11-03T16:24:34.839Z,3.83
2022-11-03T16:27:03.524Z,3.50
2022-11-03T16:29:30.379Z,3.10
2022-11-03T16:31:57.210Z,3.53
2022-11-03T16:34:24.453Z,3.97
2022-11-03T16:36:51.216Z,2.92
2022-11-03T16:39:18.100Z,3.05
2022-11-03T16:41:45.063Z,3.30
2022-11-03T16:44:12.038Z,3.38
2022-11-03T16:46:39.111Z,3.40
2022-11-03T16:49:06.237Z,3.50
2022-11-03T16:51:34.042Z,3.50
2022-11-03T16:54:01.102Z,3.60
2022-11-03T16:56:28.103Z,3.67
2022-11-03T16:58:55.038Z,2.75
2022-11-03T17:01:22.169Z,3.20
2022-11-03T17:03:49.155Z,3.33
2022-11-03T17:06:16.019Z,3.33
2022-11-03T17:08:58.241Z,3.45
2022-11-03T17:11:36.976Z,3.00
2022-11-03T17:14:06.890Z,2.70
2022-11-03T17:16:34.995Z,2.60
2022-11-03T17:19:02.047Z,2.88
2022-11-03T17:21:32.032Z,3.10
2022-11-03T17:24:00.271Z,3.65
2022-11-03T17:26:58.584Z,3.30
2022-11-03T17:29:33.172Z,2.72
2022-11-03T17:32:01.560Z,2.70
2022-11-03T17:34:29.015Z,3.47
2022-11-03T17:36:58.859Z,3.00
2022-11-03T17:39:30.654Z,3.28
2022-11-03T17:42:12.719Z,3.50
2022-11-03T17:44:47.821Z,3.65
2022-11-03T17:47:18.057Z,3.70
2022-11-03T17:49:49.250Z,3.00
2022-11-03T17:55:43.237Z,3.20
2022-11-03T17:58:51.141Z,3.58
2022-11-03T18:01:24.354Z,3.13
2022-11-03T18:03:55.033Z,3.70
2022-11-03T18:06:33.004Z,3.25
2022-11-03T18:09:07.080Z,3.42
2022-11-03T18:11:57.225Z,3.30
2022-11-03T18:14:26.362Z,3.30
2022-11-03T18:16:53.845Z,4.15
2022-11-03T18:19:22.005Z,3.45
2022-11-03T18:21:50.582Z,3.20
2022-11-03T18:24:22.242Z,3.08
2022-11-03T18:26:51.857Z,3.53
2022-11-03T18:29:18.999Z,3.30
2022-11-03T18:31:49.905Z,3.25
2022-11-03T18:34:29.257Z,3.10
2022-11-03T18:36:56.878Z,2.90
2022-11-03T18:39:27.097Z,2.85
2022-11-03T18:41:54.803Z,2.95
2022-11-03T18:44:28.576Z,3.15
2022-11-03T18:46:56.988Z,3.72
2022-11-03T18:49:26.028Z,3.40
2022-11-03T18:52:02.924Z,3.63
2022-11-03T18:54:32.910Z,3.92
2022-11-03T18:57:00.987Z,3.20
2022-11-03T18:59:32.215Z,3.38
2022-11-03T19:02:00.001Z,3.08
2022-11-03T19:04:27.783Z,3.80
2022-11-03T19:06:55.205Z,4.10
2022-11-03T19:09:27.222Z,3.70
2022-11-03T19:11:57.502Z,4.88
2022-11-03T19:14:35.514Z,4.22
2022-11-03T19:17:22.302Z,4.80
2022-11-03T19:19:56.885Z,4.28
2022-11-03T19:22:24.257Z,4.78
2022-11-03T19:24:51.334Z,4.53
2022-11-03T19:27:22.701Z,4.00
2022-11-03T19:29:49.797Z,4.45
2022-11-03T19:32:23.198Z,4.47
2022-11-03T19:34:58.963Z,4.47
2022-11-03T19:37:34.881Z,4.07
2022-11-03T19:40:03.055Z,4.47
2022-11-03T19:42:33.476Z,5.20
2022-11-03T19:45:02.625Z,4.82
2022-11-03T19:47:34.891Z,4.75
2022-11-03T19:50:04.038Z,3.90
2022-11-03T19:52:34.295Z,4.57
2022-11-03T19:55:08.651Z,4.22
2022-11-03T19:57:35.821Z,4.40
2022-11-03T20:00:03.340Z,4.88
2022-11-03T20:02:35.028Z,4.57
2022-11-03T20:05:02.178Z,7.28
2022-11-03T20:07:31.789Z,9.52
2022-11-03T20:10:00.355Z,13.80
2022-11-03T20:12:27.596Z,16.90
2022-11-03T20:14:56.284Z,18.10
2022-11-03T20:17:24.728Z,16.33
2022-11-03T20:19:53.381Z,14.68
2022-11-03T20:22:28.518Z,15.70
2022-11-03T20:25:03.195Z,15.52
2022-11-03T20:27:34.526Z,15.27
2022-11-03T20:30:02.431Z,11.57
2022-11-03T20:32:29.386Z,12.27
2022-11-03T20:34:56.476Z,12.27
2022-11-03T20:37:27.752Z,11.85
2022-11-03T20:39:56.833Z,12.63
2022-11-03T20:42:26.767Z,11.68
2022-11-03T20:44:54.048Z,12.07
2022-11-03T20:47:21.626Z,11.05
2022-11-03T20:49:48.993Z,11.70
2022-11-03T20:52:16.846Z,11.10
2022-11-03T20:54:44.158Z,10.38
2022-11-03T20:57:13.686Z,9.65
2022-11-03T20:59:41.506Z,9.25
2022-11-03T21:02:13.388Z,8.20
2022-11-03T21:04:44.495Z,7.90
2022-11-03T21:07:15.433Z,8.40
2022-11-03T21:09:42.719Z,7.25
2022-11-03T21:12:13.330Z,7.57
2022-11-03T21:15:04.756Z,7.88
2022-11-03T21:17:50.423Z,7.53
2022-11-03T21:20:17.731Z,6.53
2022-11-03T21:22:53.845Z,7.18
2022-11-03T21:25:23.819Z,7.78
2022-11-03T21:27:54.124Z,7.57
2022-11-03T21:30:21.967Z,7.25
2022-11-03T21:32:49.154Z,7.65
2022-11-03T21:35:19.376Z,7.72
2022-11-03T21:37:46.541Z,8.68
2022-11-03T21:40:15.112Z,7.72
2022-11-03T21:43:02.916Z,9.32
2022-11-03T21:45:30.025Z,7.15
2022-11-03T21:48:16.947Z,7.82
2022-11-03T21:50:46.080Z,7.25
2022-11-03T21:53:16.020Z,6.82
2022-11-03T21:55:43.131Z,7.90
2022-11-03T21:58:10.149Z,6.78
2022-11-03T22:00:37.019Z,7.05
2022-11-03T22:03:04.246Z,6.82
2022-11-03T22:05:31.672Z,6.63
2022-11-03T22:07:58.890Z,7.43
2022-11-03T22:10:29.778Z,6.90
2022-11-03T22:12:57.059Z,7.63
2022-11-03T22:15:55.100Z,7.18
2022-11-03T22:18:25.100Z,6.85
2022-11-03T22:21:16.332Z,6.55
2022-11-03T22:24:01.970Z,6.82
2022-11-03T22:26:47.513Z,7.32
2022-11-03T22:29:41.097Z,6.90
2022-11-03T22:32:15.126Z,6.45
2022-11-03T22:35:01.173Z,6.85
2022-11-03T22:40:15.933Z,6.63
2022-11-03T22:43:01.565Z,6.90
2022-11-03T22:45:47.021Z,6.55
2022-11-03T22:48:14.093Z,6.20
2022-11-03T22:50:43.676Z,6.57
2022-11-03T22:53:29.288Z,7.10
2022-11-03T22:55:56.261Z,6.53
2022-11-03T22:58:29.391Z,6.18
2022-11-03T23:00:57.707Z,6.85
2022-11-03T23:03:24.813Z,6.32
2022-11-03T23:05:59.499Z,6.22
2022-11-03T23:11:16.312Z,7.45
2022-11-03T23:13:55.210Z,6.97
2022-11-03T23:16:28.984Z,7.55
2022-11-03T23:19:16.066Z,7.43
2022-11-03T23:21:52.050Z,7.22
2022-11-03T23:24:42.231Z,7.18
2022-11-03T23:27:12.566Z,7.38
2022-11-03T23:29:39.767Z,7.32
2022-11-03T23:32:09.277Z,7.35
2022-11-03T23:34:36.633Z,7.72
2022-11-03T23:37:04.056Z,7.28
2022-11-03T23:39:31.178Z,7.38
2022-11-03T23:41:59.520Z,7.53
2022-11-03T23:44:46.480Z,7.95
2022-11-03T23:47:31.865Z,7.55
2022-11-03T23:49:58.991Z,7.90
2022-11-03T23:52:26.008Z,7.65
2022-11-03T23:54:53.209Z,7.25
2022-11-03T23:57:38.889Z,7.00
